Time;durP1;ratioP1;P1;durP2;ratioP2;P2;SDS_P1;SDS_P2;PMS_P1;PMS_P2;Temp;Humidity;BMP_temperature;BMP_pressure;BME280_temperature;BME280_humidity;BME280_pressure;Samples;Min_cycle;Max_cycle;Signal;HPM_P1;HPM_P2
2022/09/27 00:00:06;;;;;;;8.55;6.15;;;;;;;16.23;89.14;100236.19;1725728;78;21030;-90
2022/09/27 00:02:35;;;;;;;11.68;7.83;;;;;;;16.21;89.45;100231.05;1725049;78;21011;-88
2022/09/27 00:05:02;;;;;;;6.10;5.10;;;;;;;16.20;89.77;100221.92;1725750;78;20892;-89
2022/09/27 00:07:29;;;;;;;7.75;4.05;;;;;;;16.19;90.12;100228.20;1726102;82;21112;-89
2022/09/27 00:10:01;;;;;;;5.22;4.00;;;;;;;16.18;90.35;100223.87;1703760;78;21139;-89
2022/09/27 00:12:28;;;;;;;5.58;3.52;;;;;;;16.16;90.59;100228.83;1726301;78;20952;-87
2022/09/27 00:14:55;;;;;;;10.60;4.42;;;;;;;16.15;90.84;100221.84;1725912;83;20905;-88
2022/09/27 00:17:23;;;;;;;10.65;4.03;;;;;;;16.15;91.11;100217.05;1726099;83;21028;-88
2022/09/27 00:19:50;;;;;;;11.40;5.20;;;;;;;16.14;91.34;100225.94;1725902;82;21184;-89
2022/09/27 00:22:16;;;;;;;7.47;5.65;;;;;;;16.12;91.56;100216.02;1723652;82;21524;-88
2022/09/27 00:24:43;;;;;;;8.25;4.22;;;;;;;16.12;91.86;100216.84;1723574;83;20944;-88
2022/09/27 00:27:11;;;;;;;8.03;4.33;;;;;;;16.08;92.11;100210.64;1723691;82;21039;-89
2022/09/27 00:29:39;;;;;;;8.05;4.40;;;;;;;16.07;92.35;100207.63;1701369;83;20977;-88
2022/09/27 00:32:06;;;;;;;6.28;4.80;;;;;;;16.08;92.73;100209.32;1723120;83;21145;-90
2022/09/27 00:34:33;;;;;;;10.32;4.05;;;;;;;16.06;92.76;100202.84;1723225;82;20979;-88
2022/09/27 00:36:59;;;;;;;10.28;4.35;;;;;;;16.06;92.76;100202.84;1723366;82;20940;-89
2022/09/27 00:39:26;;;;;;;6.10;3.80;;;;;;;16.02;93.33;100205.89;1725227;78;21159;-89
2022/09/27 00:41:56;;;;;;;10.70;5.08;;;;;;;16.02;93.33;100205.89;1725586;78;20924;-89
2022/09/27 00:44:37;;;;;;;7.72;5.25;;;;;;;16.04;93.74;100207.92;1725288;81;21416;-89
2022/09/27 00:47:13;;;;;;;7.05;5.10;;;;;;;16.03;93.94;100204.91;1725813;78;20916;-90
2022/09/27 00:49:54;;;;;;;13.95;8.00;;;;;;;16.02;94.21;100198.79;1723876;83;20928;-90
2022/09/27 00:52:25;;;;;;;11.80;6.90;;;;;;;16.00;94.43;100201.23;1619658;86;20944;-89
2022/09/27 00:54:57;;;;;;;6.20;4.45;;;;;;;16.00;94.43;100201.23;1639181;86;20990;-87
2022/09/27 00:57:24;;;;;;;16.35;5.62;;;;;;;16.00;94.63;100203.37;1638495;86;21258;-90
2022/09/27 01:00:03;;;;;;;8.95;4.45;;;;;;;16.00;94.83;100202.55;1616849;87;21477;-89
2022/09/27 01:02:29;;;;;;;9.40;5.40;;;;;;;15.98;94.90;100195.23;1637931;87;21023;-90
2022/09/27 01:04:57;;;;;;;9.43;5.25;;;;;;;15.97;95.09;100195.73;1639613;87;21051;-90
2022/09/27 01:07:24;;;;;;;13.62;7.70;;;;;;;15.97;95.09;100195.73;1639119;87;20908;-90
2022/09/27 01:09:51;;;;;;;8.70;5.00;;;;;;;15.97;95.12;100192.25;1616535;87;21274;-90
2022/09/27 01:12:52;;;;;;;8.50;5.22;;;;;;;15.95;95.32;100194.53;1638521;87;20939;-88
2022/09/27 01:15:40;;;;;;;6.12;5.03;;;;;;;15.93;95.46;100189.87;1638368;86;21129;-90
2022/09/27 01:18:34;;;;;;;8.20;5.62;;;;;;;15.92;95.72;100194.82;1641797;87;21019;-90
2022/09/27 01:21:40;;;;;;;10.43;6.05;;;;;;;15.90;95.90;100191.97;1674401;85;21032;-88
2022/09/27 01:24:16;;;;;;;7.28;5.15;;;;;;;15.87;96.07;100188.26;1674045;84;21901;-89
2022/09/27 01:27:07;;;;;;;8.73;6.20;;;;;;;15.87;96.18;100181.64;1674120;85;20949;-89
2022/09/27 01:30:02;;;;;;;10.18;5.85;;;;;;;15.86;96.34;100173.38;1721444;81;21290;-89
2022/09/27 01:34:32;;;;;;;8.83;5.35;;;;;;;15.87;96.57;100162.64;1798765;79;23256;-89
2022/09/27 01:37:17;;;;;;;9.80;5.85;;;;;;;15.82;96.70;100164.88;1758565;80;20908;-90
2022/09/27 01:39:53;;;;;;;8.43;5.45;;;;;;;15.80;96.90;100162.02;1758658;81;21960;-89
2022/09/27 01:42:46;;;;;;;8.93;6.28;;;;;;;15.80;97.11;100164.66;1724927;83;20883;-89
2022/09/27 01:45:37;;;;;;;14.30;5.35;;;;;;;15.78;97.22;100167.93;1725218;83;20916;-90
2022/09/27 01:48:22;;;;;;;8.03;5.22;;;;;;;15.75;97.43;100171.20;1700508;83;20891;-90
2022/09/27 01:51:10;;;;;;;9.00;4.70;;;;;;;15.74;97.55;100173.50;1725111;83;21061;-90
2022/09/27 01:53:40;;;;;;;7.37;5.47;;;;;;;15.74;97.79;100178.79;1721310;83;21230;-89
2022/09/27 01:56:40;;;;;;;6.80;5.00;;;;;;;15.77;97.92;100176.84;1725128;81;20911;-90
2022/09/27 01:59:28;;;;;;;12.03;5.47;;;;;;;15.77;97.92;100176.84;1724346;83;20900;-90
2022/09/27 02:01:59;;;;;;;10.45;5.17;;;;;;;15.79;98.05;100166.97;1724321;81;20927;-89
2022/09/27 02:04:31;;;;;;;7.70;4.75;;;;;;;15.80;98.08;100163.34;1708679;81;20931;-89
2022/09/27 02:07:22;;;;;;;9.78;6.87;;;;;;;15.81;98.05;100152.64;1724898;83;21384;-89
2022/09/27 02:09:56;;;;;;;8.65;5.72;;;;;;;15.83;98.10;100151.16;1725394;82;20891;-88
2022/09/27 02:12:30;;;;;;;13.68;5.58;;;;;;;15.85;98.13;100143.92;1725897;83;20888;-88
2022/09/27 02:15:07;;;;;;;8.03;5.47;;;;;;;15.87;98.05;100153.88;1727888;80;20939;-87
2022/09/27 02:18:05;;;;;;;5.70;4.40;;;;;;;15.89;97.61;100136.90;1709995;80;20935;-88
2022/09/27 02:20:43;;;;;;;8.20;4.78;;;;;;;15.89;97.61;100136.90;1696225;83;21347;-88
2022/09/27 02:23:42;;;;;;;5.03;4.42;;;;;;;15.90;97.92;100126.69;1720467;83;20923;-89
2022/09/27 02:26:18;;;;;;;8.93;5.25;;;;;;;15.91;97.90;100121.73;1724865;83;21057;-90
2022/09/27 02:29:11;;;;;;;6.35;4.15;;;;;;;15.91;97.83;100112.97;1725148;81;20907;-89
2022/09/27 02:31:43;;;;;;;7.80;4.60;;;;;;;15.90;98.08;100108.17;1724465;83;20955;-88
2022/09/27 02:34:21;;;;;;;8.40;5.62;;;;;;;15.90;98.08;100108.17;1717947;82;21231;-88
2022/09/27 02:36:47;;;;;;;9.80;4.70;;;;;;;15.92;97.64;100105.41;1717211;83;21048;-89
2022/09/27 02:39:15;;;;;;;5.80;3.98;;;;;;;15.91;97.56;100100.58;1736465;81;20913;-89
2022/09/27 02:41:42;;;;;;;9.05;4.87;;;;;;;15.92;97.59;100101.44;1753687;81;20909;-90
2022/09/27 02:44:10;;;;;;;7.40;4.58;;;;;;;15.92;97.43;100100.11;1735988;82;20888;-90
2022/09/27 02:46:55;;;;;;;10.40;4.65;;;;;;;15.92;97.54;100093.50;1752887;82;21244;-89
2022/09/27 02:49:50;;;;;;;7.42;4.05;;;;;;;15.90;97.37;100090.16;1752795;80;26470;-89
2022/09/27 02:52:39;;;;;;;7.05;4.55;;;;;;;15.92;97.29;100089.53;1749873;82;20924;-89
2022/09/27 02:55:42;;;;;;;7.58;4.70;;;;;;;15.92;97.19;100092.18;1752743;80;20920;-88
2022/09/27 02:58:38;;;;;;;7.78;5.20;;;;;;;15.91;96.92;100089.17;1750348;81;20936;-89
2022/09/27 03:01:33;;;;;;;6.90;4.90;;;;;;;15.91;96.92;100089.17;1713360;81;21447;-89
2022/09/27 03:04:16;;;;;;;7.95;5.40;;;;;;;15.91;97.25;100075.45;1751611;80;21445;-89
2022/09/27 03:06:45;;;;;;;6.55;5.90;;;;;;;15.91;97.37;100066.69;1752739;82;20960;-88
2022/09/27 03:09:20;;;;;;;8.93;6.05;;;;;;;15.87;97.38;100060.84;1752726;80;20943;-90
2022/09/27 03:11:49;;;;;;;9.55;6.37;;;;;;;15.90;97.69;100065.87;1752734;80;20928;-89
2022/09/27 03:14:16;;;;;;;6.15;5.58;;;;;;;15.90;97.79;100065.04;1716588;83;21148;-88
2022/09/27 03:16:46;;;;;;;10.20;6.70;;;;;;;15.91;97.99;100058.76;1752049;81;22050;-90
2022/09/27 03:19:32;;;;;;;8.43;6.00;;;;;;;15.89;98.25;100045.67;1714202;83;21440;-89
2022/09/27 03:22:20;;;;;;;7.05;5.53;;;;;;;15.89;98.25;100045.67;1714467;83;21438;-90
2022/09/27 03:24:48;;;;;;;8.80;7.35;;;;;;;15.91;98.00;100042.89;1716842;83;21006;-91
2022/09/27 03:27:14;;;;;;;12.60;6.87;;;;;;;15.92;97.90;100040.61;1735886;80;21211;-90
2022/09/27 03:29:42;;;;;;;11.75;8.45;;;;;;;15.90;97.78;100031.48;1752591;81;21500;-90
2022/09/27 03:32:09;;;;;;;7.58;6.87;;;;;;;15.93;97.73;100040.95;1752666;82;20924;-89
2022/09/27 03:34:44;;;;;;;12.65;7.15;;;;;;;15.92;97.71;100049.38;1751802;81;20979;-90
2022/09/27 03:37:14;;;;;;;10.03;6.62;;;;;;;15.91;97.67;100045.05;1755488;80;20998;-90
2022/09/27 03:39:41;;;;;;;12.03;7.45;;;;;;;15.90;97.68;100044.71;1755308;79;21429;-89
2022/09/27 03:42:07;;;;;;;12.03;7.80;;;;;;;15.91;97.72;100054.80;1752834;82;20928;-89
2022/09/27 03:44:36;;;;;;;11.63;7.60;;;;;;;15.90;97.88;100047.85;1716883;83;20844;-90
2022/09/27 03:47:03;;;;;;;9.43;8.20;;;;;;;15.91;97.97;100058.27;1716970;82;21421;-88
2022/09/27 03:49:31;;;;;;;11.00;7.70;;;;;;;15.90;98.12;100059.25;1716693;83;20927;-90
2022/09/27 03:51:58;;;;;;;17.77;9.53;;;;;;;15.90;98.59;100053.14;1716736;83;21861;-91
2022/09/27 03:54:24;;;;;;;12.13;10.03;;;;;;;15.90;98.59;100053.14;1718434;80;21174;-91
2022/09/27 03:56:51;;;;;;;12.55;10.03;;;;;;;15.90;98.49;100056.61;1755647;80;20892;-90
2022/09/27 03:59:18;;;;;;;13.72;11.90;;;;;;;15.90;98.63;100055.29;1737811;81;20868;-90
2022/09/27 04:01:46;;;;;;;16.40;12.78;;;;;;;15.91;98.77;100052.15;1721736;80;21035;-89
2022/09/27 04:04:15;;;;;;;18.23;13.60;;;;;;;15.93;98.87;100052.84;1752594;81;21134;-91
2022/09/27 04:06:42;;;;;;;17.30;14.05;;;;;;;15.93;99.05;100044.42;1753315;80;20971;-88
2022/09/27 04:09:08;;;;;;;22.13;15.65;;;;;;;15.93;99.22;100048.38;1753100;80;20976;-89
2022/09/27 04:11:37;;;;;;;19.70;16.97;;;;;;;15.95;99.40;100045.61;1750362;81;21350;-90
2022/09/27 04:14:04;;;;;;;21.62;17.27;;;;;;;15.97;99.60;100042.84;1753167;80;20987;-90
2022/09/27 04:16:33;;;;;;;23.12;16.27;;;;;;;15.97;99.93;100045.48;1753270;82;21165;-92
2022/09/27 04:19:07;;;;;;;22.75;17.07;;;;;;;15.97;99.93;100045.48;1746224;82;20928;-90
2022/09/27 04:21:47;;;;;;;21.30;16.52;;;;;;;16.00;99.75;100041.22;1752783;81;21382;-89
2022/09/27 04:24:14;;;;;;;22.82;16.30;;;;;;;16.01;99.73;100037.58;1753446;82;20913;-90
2022/09/27 04:26:43;;;;;;;21.25;18.35;;;;;;;16.04;99.76;100036.00;1753119;81;20908;-93
2022/09/27 04:29:11;;;;;;;40.40;31.17;;;;;;;16.07;99.99;100033.87;1753114;81;21929;-90
2022/09/27 04:31:42;;;;;;;29.10;23.42;;;;;;;16.07;99.99;100033.87;1753348;82;21277;-90
2022/09/27 04:34:15;;;;;;;54.23;48.38;;;;;;;16.08;99.62;100034.25;1746625;81;20995;-89
2022/09/27 04:36:41;;;;;;;24.72;20.15;;;;;;;16.12;99.54;100034.81;1743409;81;21019;-91
2022/09/27 04:39:18;;;;;;;20.72;18.12;;;;;;;16.16;99.28;100033.52;1758522;81;20932;-90
2022/09/27 04:41:46;;;;;;;32.80;21.68;;;;;;;16.16;99.28;100033.52;1758477;81;21098;-90
2022/09/27 04:44:13;;;;;;;24.70;20.12;;;;;;;16.17;99.25;100035.20;1758429;81;20944;-91
2022/09/27 04:46:41;;;;;;;23.87;18.98;;;;;;;16.20;99.13;100034.08;1758240;81;20998;-91
2022/09/27 04:49:09;;;;;;;23.83;21.42;;;;;;;16.22;99.01;100031.63;1758171;81;20892;-90
2022/09/27 04:51:36;;;;;;;32.75;22.10;;;;;;;16.23;98.96;100035.11;1758370;80;20916;-91
2022/09/27 04:54:03;;;;;;;28.12;22.40;;;;;;;16.25;98.90;100033.16;1758426;80;21238;-91
2022/09/27 04:56:33;;;;;;;31.95;28.42;;;;;;;16.27;98.79;100024.59;1758559;81;20990;-93
2022/09/27 04:59:00;;;;;;;33.50;25.02;;;;;;;16.28;98.67;100026.27;1759347;81;20896;-90
2022/09/27 05:01:27;;;;;;;43.63;36.70;;;;;;;16.28;98.69;100028.42;1761096;80;20971;-92
2022/09/27 05:04:12;;;;;;;31.00;26.62;;;;;;;16.30;98.56;100029.61;1758512;81;20942;-91
2022/09/27 05:06:40;;;;;;;40.33;32.48;;;;;;;16.32;98.62;100034.27;1758653;81;21178;-91
2022/09/27 05:09:09;;;;;;;35.05;27.65;;;;;;;16.33;98.59;100038.08;1757487;81;20892;-92
2022/09/27 05:11:41;;;;;;;39.67;29.72;;;;;;;16.36;98.54;100032.98;1756661;81;20884;-92
2022/09/27 05:14:27;;;;;;;39.27;27.87;;;;;;;16.39;98.54;100038.01;1758499;81;20865;-92
2022/09/27 05:16:58;;;;;;;44.10;28.42;;;;;;;16.42;98.47;100040.36;1751148;81;20944;-91
2022/09/27 05:19:25;;;;;;;44.00;32.55;;;;;;;16.46;98.42;100039.59;1758354;80;21866;-91
2022/09/27 05:22:12;;;;;;;45.52;31.85;;;;;;;16.47;98.20;100030.16;1758507;81;20944;-93
2022/09/27 05:24:43;;;;;;;43.15;32.35;;;;;;;16.51;98.22;100026.75;1759080;81;20888;-92
2022/09/27 05:27:17;;;;;;;42.30;33.08;;;;;;;16.53;98.24;100017.67;1758730;81;20904;-93
2022/09/27 05:29:44;;;;;;;42.53;33.65;;;;;;;16.53;98.24;100017.67;1758719;81;21034;-91
2022/09/27 05:32:15;;;;;;;48.95;40.58;;;;;;;16.56;97.93;100018.73;1757529;81;21146;-93
2022/09/27 05:34:42;;;;;;;67.97;56.23;;;;;;;16.60;97.93;100018.42;1758140;81;20975;-92
2022/09/27 05:37:09;;;;;;;51.18;36.58;;;;;;;16.61;97.77;100013.45;1758349;81;20935;-92
2022/09/27 05:39:37;;;;;;;53.38;40.25;;;;;;;16.64;97.56;100017.98;1758231;81;20950;-93
2022/09/27 05:42:07;;;;;;;46.53;35.90;;;;;;;16.70;97.41;100027.17;1758299;80;20994;-92
2022/09/27 05:44:35;;;;;;;46.13;35.85;;;;;;;16.70;97.41;100027.17;1758429;81;21168;-90
2022/09/27 05:47:04;;;;;;;43.55;35.45;;;;;;;16.75;97.46;100024.41;1758120;80;20998;-91
2022/09/27 05:49:32;;;;;;;52.33;37.90;;;;;;;16.75;97.46;100024.41;1758405;81;21519;-91
2022/09/27 05:52:00;;;;;;;37.63;30.45;;;;;;;16.81;97.48;100034.09;1758416;81;20908;-92
2022/09/27 05:54:28;;;;;;;41.30;32.83;;;;;;;16.85;96.38;100029.71;1758374;81;20853;-91
2022/09/27 05:57:00;;;;;;;43.50;33.78;;;;;;;16.85;96.38;100029.71;1758533;80;21401;-91
2022/09/27 05:59:53;;;;;;;41.83;35.33;;;;;;;16.88;96.67;100031.23;1758242;80;20999;-89
2022/09/27 06:02:24;;;;;;;41.35;32.67;;;;;;;16.90;96.49;100024.80;1757782;81;21082;-91
2022/09/27 06:05:08;;;;;;;41.28;33.98;;;;;;;16.93;96.30;100018.37;1758428;80;20948;-91
2022/09/27 06:08:04;;;;;;;34.80;30.50;;;;;;;16.95;96.14;100021.70;1758682;81;20908;-91
2022/09/27 06:10:35;;;;;;;39.20;31.20;;;;;;;16.96;95.97;100009.64;1758113;81;21281;-91
2022/09/27 06:13:10;;;;;;;35.03;29.65;;;;;;;16.99;95.74;100004.53;1758283;81;20999;-91
2022/09/27 06:15:40;;;;;;;36.85;32.53;;;;;;;17.01;95.53;99991.98;1758561;80;20889;-92
2022/09/27 06:18:10;;;;;;;40.20;33.73;;;;;;;17.04;95.37;99998.29;1758952;81;20912;-92
2022/09/27 06:20:38;;;;;;;42.13;36.88;;;;;;;17.06;95.14;99998.98;1760877;81;20920;-92
2022/09/27 06:23:11;;;;;;;33.30;27.77;;;;;;;17.10;95.06;100006.15;1760868;81;21377;-92
2022/09/27 06:25:38;;;;;;;31.62;25.55;;;;;;;17.12;94.88;100015.61;1758352;81;20901;-89
2022/09/27 06:28:16;;;;;;;31.73;25.02;;;;;;;17.13;94.68;100009.81;1757409;81;20971;-93
2022/09/27 06:30:47;;;;;;;28.20;23.10;;;;;;;17.14;94.57;100009.67;1759085;81;20896;-92
2022/09/27 06:33:20;;;;;;;48.35;41.63;;;;;;;17.16;94.49;100007.70;1754779;81;20888;-92
2022/09/27 06:35:48;;;;;;;69.05;58.05;;;;;;;17.18;94.43;100007.04;1743151;82;21903;-91
2022/09/27 06:38:17;;;;;;;81.08;64.03;;;;;;;17.19;94.35;100014.02;1750746;82;20880;-90
2022/09/27 06:40:45;;;;;;;32.95;29.25;;;;;;;17.22;94.24;100012.06;1749586;80;20959;-94
2022/09/27 06:43:20;;;;;;;31.48;22.87;;;;;;;17.22;94.20;100006.76;1747326;82;20884;-92
2022/09/27 06:46:04;;;;;;;32.30;27.83;;;;;;;17.25;94.16;99995.34;1748855;82;20880;-90
2022/09/27 06:48:32;;;;;;;27.73;24.70;;;;;;;17.28;94.15;100000.37;1746155;80;21174;-91
2022/09/27 06:51:01;;;;;;;26.17;21.95;;;;;;;17.30;93.97;99992.27;1741029;82;21294;-91
2022/09/27 06:53:28;;;;;;;24.12;21.52;;;;;;;17.33;93.83;99989.31;1750380;82;21376;-92
2022/09/27 06:55:59;;;;;;;34.45;24.67;;;;;;;17.34;93.66;99994.94;1750510;82;20903;-90
2022/09/27 07:01:27;;;;;;;;;;;;;;;17.39;93.23;99988.21;1749669;82;21270;-91
2022/09/27 07:04:06;;;;;;;29.15;25.70;;;;;;;17.43;92.88;99993.20;1726932;82;20120;-90
2022/09/27 07:06:44;;;;;;;18.70;14.75;;;;;;;17.43;92.62;99999.36;1706041;82;20983;-92
2022/09/27 07:09:19;;;;;;;16.45;12.82;;;;;;;17.45;92.50;99997.36;1752089;79;20891;-91
2022/09/27 07:11:47;;;;;;;15.70;13.20;;;;;;;17.47;92.33;99997.22;1751894;82;21425;-91
2022/09/27 07:14:20;;;;;;;18.55;13.03;;;;;;;17.48;92.24;99997.07;1752524;80;21200;-91
2022/09/27 07:16:49;;;;;;;18.37;11.40;;;;;;;17.52;92.10;100004.21;1752106;80;21349;-91
2022/09/27 07:19:17;;;;;;;12.90;10.18;;;;;;;17.53;91.99;100004.56;1721431;82;20903;-92
2022/09/27 07:21:44;;;;;;;12.58;10.25;;;;;;;17.55;91.86;99995.97;1750261;80;20919;-90
2022/09/27 07:24:11;;;;;;;12.55;9.20;;;;;;;17.57;91.81;99984.22;1750268;82;21006;-93
2022/09/27 07:26:39;;;;;;;17.00;11.85;;;;;;;17.60;91.72;99973.30;1750355;80;21235;-90
2022/09/27 07:29:08;;;;;;;13.15;10.03;;;;;;;17.64;91.78;99971.69;1750459;82;21030;-92
2022/09/27 07:31:36;;;;;;;17.10;9.53;;;;;;;17.67;91.61;99963.41;1750546;80;20919;-91
2022/09/27 07:34:04;;;;;;;10.78;8.23;;;;;;;17.71;91.37;99965.59;1720908;81;21485;-90
2022/09/27 07:36:30;;;;;;;12.10;8.88;;;;;;;17.77;91.23;99967.64;1745348;80;20980;-91
2022/09/27 07:39:00;;;;;;;11.93;9.58;;;;;;;17.84;91.03;99969.72;1745480;81;21236;-91
2022/09/27 07:41:27;;;;;;;9.10;8.20;;;;;;;17.87;90.71;99960.11;1746642;81;20901;-92
2022/09/27 07:43:53;;;;;;;9.70;8.10;;;;;;;17.93;90.57;99966.95;1747995;79;20984;-92
2022/09/27 07:46:22;;;;;;;10.82;9.15;;;;;;;18.00;90.35;99965.83;1701188;83;21007;-91
2022/09/27 07:48:51;;;;;;;13.50;9.65;;;;;;;18.07;90.08;99965.54;1707362;83;20931;-90
2022/09/27 07:51:23;;;;;;;12.53;9.33;;;;;;;18.13;89.80;99956.13;1710141;82;21098;-92
2022/09/27 07:53:52;;;;;;;9.75;7.92;;;;;;;18.19;89.47;99960.31;1708401;83;21257;-90
2022/09/27 07:56:32;;;;;;;7.90;6.67;;;;;;;18.25;89.24;99956.18;1708891;83;21401;-91
2022/09/27 07:59:00;;;;;;;9.95;7.60;;;;;;;18.31;88.59;99950.75;1709955;82;21310;-91
2022/09/27 08:01:27;;;;;;;11.05;8.03;;;;;;;18.34;87.88;99944.64;1710055;84;21517;-89
2022/09/27 08:03:58;;;;;;;7.92;6.80;;;;;;;18.37;87.60;99950.94;1710184;84;20852;-91
2022/09/27 08:06:29;;;;;;;9.55;6.33;;;;;;;18.40;86.93;99943.98;1710108;84;20924;-91
2022/09/27 08:08:58;;;;;;;6.25;5.47;;;;;;;18.42;86.48;99939.84;1709716;82;20873;-90
2022/09/27 08:11:30;;;;;;;7.45;5.40;;;;;;;18.46;86.12;99939.05;1734870;82;20865;-91
2022/09/27 08:14:00;;;;;;;7.80;6.70;;;;;;;18.46;85.23;99936.39;1745801;81;21370;-92
2022/09/27 08:16:34;;;;;;;7.55;5.05;;;;;;;18.45;84.82;99930.22;1745431;82;21237;-91
2022/09/27 08:19:04;;;;;;;5.47;4.97;;;;;;;18.44;84.57;99924.09;1727954;81;20972;-90
2022/09/27 08:21:59;;;;;;;5.08;4.60;;;;;;;18.45;84.46;99914.30;1684490;85;20896;-91
2022/09/27 08:24:25;;;;;;;5.10;4.60;;;;;;;18.47;84.51;99912.81;1684436;83;21499;-91
2022/09/27 08:26:58;;;;;;;8.55;5.53;;;;;;;18.50;84.53;99904.52;1685209;85;20963;-91
2022/09/27 08:29:44;;;;;;;9.35;7.70;;;;;;;18.54;84.14;99895.23;1680634;85;21234;-91
2022/09/27 08:32:15;;;;;;;6.55;5.28;;;;;;;18.55;83.72;99898.25;1680711;85;21490;-91
2022/09/27 08:34:45;;;;;;;9.63;5.87;;;;;;;18.57;83.80;99902.40;1678312;84;21455;-90
2022/09/27 08:37:14;;;;;;;5.97;5.30;;;;;;;18.60;83.54;99897.25;1674238;85;20911;-91
2022/09/27 08:39:42;;;;;;;6.80;6.12;;;;;;;18.62;83.24;99899.25;1674048;85;20965;-93
2022/09/27 08:42:41;;;;;;;6.92;6.10;;;;;;;18.64;83.11;99902.58;1673864;85;21152;-92
2022/09/27 08:45:25;;;;;;;7.78;5.03;;;;;;;18.65;82.88;99902.91;1673494;85;21033;-90
2022/09/27 08:47:59;;;;;;;6.40;4.65;;;;;;;18.66;82.64;99907.23;1673910;85;20897;-91
2022/09/27 08:50:36;;;;;;;5.25;4.72;;;;;;;18.68;82.51;99906.58;1674759;85;21474;-90
2022/09/27 08:53:19;;;;;;;5.55;4.70;;;;;;;18.68;82.38;99900.45;1675562;84;20919;-91
2022/09/27 08:55:55;;;;;;;5.92;5.10;;;;;;;18.65;82.18;99890.95;1651908;85;21165;-91
2022/09/27 08:58:31;;;;;;;6.78;4.50;;;;;;;18.64;82.11;99888.80;1691497;84;20967;-91
2022/09/27 09:01:02;;;;;;;4.72;4.30;;;;;;;18.64;82.00;99884.81;1695993;82;20903;-91
2022/09/27 09:03:39;;;;;;;5.50;4.58;;;;;;;18.63;81.92;99883.17;1713367;79;20940;-91
2022/09/27 09:06:31;;;;;;;7.12;4.90;;;;;;;18.63;81.89;99878.33;1753203;79;21052;-91
2022/09/27 09:09:28;;;;;;;6.85;4.92;;;;;;;18.63;81.88;99875.20;1722725;82;21149;-92
2022/09/27 09:12:47;;;;;;;5.35;4.85;;;;;;;18.63;81.88;99872.55;1752613;82;20860;-92
2022/09/27 09:15:54;;;;;;;6.17;5.00;;;;;;;18.64;81.89;99875.52;1753187;82;20899;-93
2022/09/27 09:18:45;;;;;;;5.35;4.42;;;;;;;18.67;81.68;99874.36;1752922;82;20994;-94
2022/09/27 09:21:57;;;;;;;6.03;4.40;;;;;;;18.69;81.37;99871.55;1699542;82;20943;-93
2022/09/27 09:24:48;;;;;;;5.33;4.40;;;;;;;18.66;80.69;99866.07;1752965;79;23079;-92
2022/09/27 09:27:49;;;;;;;6.75;4.30;;;;;;;18.63;80.22;99865.91;1747649;80;20912;-91
2022/09/27 09:30:25;;;;;;;9.03;3.92;;;;;;;18.62;80.08;99864.22;1709765;84;20972;-92
2022/09/27 09:33:19;;;;;;;12.55;7.78;;;;;;;18.63;79.90;99873.02;1707143;84;21035;-93
2022/09/27 09:36:05;;;;;;;10.82;7.53;;;;;;;18.63;79.82;99874.34;1707258;84;20944;-94
2022/09/27 09:38:44;;;;;;;9.15;7.20;;;;;;;18.63;79.65;99863.72;1677052;84;21125;-93
2022/09/27 09:41:31;;;;;;;12.18;6.95;;;;;;;18.65;79.59;99865.72;1705280;83;21619;-92
2022/09/27 09:44:07;;;;;;;9.98;7.22;;;;;;;18.67;79.62;99866.39;1705348;84;20913;-93
2022/09/27 09:46:43;;;;;;;5.28;4.78;;;;;;;18.72;79.66;99865.42;1706331;82;20963;-91
2022/09/27 09:49:38;;;;;;;8.15;5.33;;;;;;;18.76;79.41;99862.75;1683379;83;21055;-92
2022/09/27 09:52:23;;;;;;;6.58;5.37;;;;;;;18.80;79.32;99861.97;1706376;82;20937;-91
2022/09/27 09:54:58;;;;;;;5.08;4.35;;;;;;;18.82;78.94;99860.80;1682366;83;20929;-91
2022/09/27 09:57:50;;;;;;;6.20;4.12;;;;;;;18.86;78.90;99851.20;1681392;82;21316;-90
2022/09/27 10:00:21;;;;;;;5.25;4.22;;;;;;;18.89;78.32;99849.53;1692755;82;20897;-92
2022/09/27 10:02:52;;;;;;;3.83;3.35;;;;;;;18.88;78.08;99848.70;1707117;82;20893;-93
2022/09/27 10:05:24;;;;;;;4.97;3.55;;;;;;;18.88;77.55;99847.38;1691996;82;21432;-94
2022/09/27 10:08:04;;;;;;;5.67;4.10;;;;;;;18.88;77.38;99847.87;1754422;79;21026;-96
2022/09/27 10:10:33;;;;;;;4.17;3.63;;;;;;;18.87;77.14;99847.53;1761945;79;20881;-93
2022/09/27 10:13:04;;;;;;;7.40;3.50;;;;;;;18.84;77.07;99847.37;1737659;80;20952;-93
2022/09/27 10:15:34;;;;;;;8.28;4.22;;;;;;;18.81;77.13;99845.88;1755696;80;20944;-93
2022/09/27 10:18:03;;;;;;;8.55;3.55;;;;;;;18.78;77.38;99846.19;1753890;81;21094;-93
2022/09/27 10:20:41;;;;;;;7.05;3.40;;;;;;;18.73;77.44;99837.03;1717730;83;20923;-94
2022/09/27 10:23:18;;;;;;;6.33;3.75;;;;;;;18.76;77.49;99838.84;1717316;81;21101;-92
2022/09/27 10:26:04;;;;;;;4.80;3.95;;;;;;;18.74;77.64;99837.35;1717861;82;26531;-93
2022/09/27 10:28:42;;;;;;;4.90;4.33;;;;;;;18.72;78.04;99837.53;1755833;81;20924;-91
2022/09/27 10:31:19;;;;;;;4.87;3.92;;;;;;;18.71;78.12;99831.05;1691257;83;21306;-92
2022/09/27 10:34:03;;;;;;;5.10;3.87;;;;;;;18.68;78.31;99838.03;1717429;83;21025;-92
2022/09/27 10:36:35;;;;;;;6.45;4.10;;;;;;;18.67;78.33;99839.83;1746122;80;21615;-91
2022/09/27 10:39:05;;;;;;;8.65;4.75;;;;;;;18.64;78.47;99843.66;1746159;81;21421;-91
2022/09/27 10:41:45;;;;;;;8.95;4.72;;;;;;;18.63;78.61;99847.31;1710526;83;21171;-94
2022/09/27 10:44:22;;;;;;;6.47;4.30;;;;;;;18.63;78.70;99835.84;1745474;81;21076;-96
2022/09/27 10:46:58;;;;;;;4.83;4.08;;;;;;;18.61;78.70;99837.35;1709691;82;21386;-94
2022/09/27 10:49:46;;;;;;;6.60;4.58;;;;;;;18.61;78.82;99839.18;1711407;83;20975;-94
2022/09/27 10:52:32;;;;;;;6.70;4.45;;;;;;;18.61;79.03;99834.69;1745111;81;21470;-93
2022/09/27 10:55:08;;;;;;;6.90;4.53;;;;;;;18.64;79.01;99820.25;1745534;80;20874;-94
2022/09/27 10:57:38;;;;;;;4.30;3.90;;;;;;;18.67;78.94;99820.42;1745366;81;21161;-95
2022/09/27 11:00:24;;;;;;;7.05;4.85;;;;;;;18.72;79.17;99818.94;1745281;80;20980;-95
2022/09/27 11:03:04;;;;;;;8.25;4.47;;;;;;;18.77;78.67;99815.31;1688165;84;20983;-93
2022/09/27 11:05:39;;;;;;;6.92;4.37;;;;;;;18.84;78.66;99809.67;1709638;84;20943;-92
2022/09/27 11:08:26;;;;;;;4.75;3.70;;;;;;;18.89;77.60;99811.83;1739589;81;20933;-94
2022/09/27 11:11:22;;;;;;;6.75;3.20;;;;;;;18.94;77.02;99802.88;1711995;82;21086;-93
2022/09/27 11:14:07;;;;;;;5.87;3.60;;;;;;;19.01;75.81;99795.90;1710198;84;20964;-94
2022/09/27 11:16:47;;;;;;;5.37;3.80;;;;;;;19.06;74.75;99788.75;1688332;84;20948;-95
2022/09/27 11:19:51;;;;;;;5.03;2.95;;;;;;;19.11;73.87;99780.27;1708746;84;20955;-96
2022/09/27 11:22:45;;;;;;;6.08;2.98;;;;;;;19.15;72.34;99778.94;1709943;82;21037;-93
2022/09/27 11:25:21;;;;;;;;;;;;;;;19.18;71.87;99778.59;1712450;84;21157;-93
2022/09/27 11:28:26;;;;;;;7.37;3.00;;;;;;;19.22;71.14;99786.06;1696359;84;20430;-96
2022/09/27 11:31:11;;;;;;;4.30;2.58;;;;;;;19.23;70.27;99781.09;1697136;84;20902;-94
2022/09/27 11:34:30;;;;;;;4.67;3.05;;;;;;;19.28;69.52;99787.73;1690472;83;20973;-94
2022/09/27 11:37:09;;;;;;;3.67;3.17;;;;;;;19.30;68.95;99789.22;1716982;81;20870;-94
2022/09/27 11:39:46;;;;;;;4.05;3.27;;;;;;;19.31;68.64;99778.91;1715537;81;21176;-93
2022/09/27 11:42:35;;;;;;;4.22;3.02;;;;;;;19.31;68.01;99778.08;1713635;81;20956;-94
2022/09/27 11:45:24;;;;;;;4.65;2.02;;;;;;;19.29;67.05;99778.75;1717533;80;20936;-91
2022/09/27 11:48:14;;;;;;;6.12;3.25;;;;;;;19.24;66.36;99779.25;1717140;81;21008;-94
2022/09/27 11:51:14;;;;;;;3.40;3.08;;;;;;;19.20;65.16;99776.59;1690636;80;20984;-96
2022/09/27 11:53:51;;;;;;;2.65;2.33;;;;;;;19.16;64.84;99776.60;1702442;80;20984;-93
2022/09/27 11:56:47;;;;;;;4.53;2.85;;;;;;;19.12;64.73;99788.56;1717152;81;20968;-94
2022/09/27 11:59:49;;;;;;;3.85;3.55;;;;;;;19.09;64.90;99782.27;1717617;80;21015;-94
2022/09/27 12:02:58;;;;;;;6.58;3.72;;;;;;;19.04;64.77;99777.45;1690416;83;20933;-95
2022/09/27 12:06:12;;;;;;;5.67;3.05;;;;;;;18.94;65.07;99760.37;1717458;80;20889;-93
2022/09/27 12:09:14;;;;;;;4.67;3.08;;;;;;;18.94;65.02;99764.36;1710744;83;21271;-94
2022/09/27 12:11:53;;;;;;;4.05;3.20;;;;;;;18.88;65.44;99771.66;1703985;84;20940;-96